sensor_id;sensor_type;location;lat;lon;timestamp;P1;durP1;ratioP1;P2;durP2;ratioP2
44078;SDS011;29744;49.078;12.878;2022-09-17T00:00:17;1.48;;;1.00;;
44078;SDS011;29744;49.078;12.878;2022-09-17T00:05:17;1.50;;;0.93;;
44078;SDS011;29744;49.078;12.878;2022-09-17T00:10:18;1.75;;;1.00;;
44078;SDS011;29744;49.078;12.878;2022-09-17T00:15:19;1.98;;;1.00;;
44078;SDS011;29744;49.078;12.878;2022-09-17T00:20:20;2.42;;;1.08;;
44078;SDS011;29744;49.078;12.878;2022-09-17T00:25:20;1.77;;;1.00;;
44078;SDS011;29744;49.078;12.878;2022-09-17T00:30:21;1.50;;;0.90;;
44078;SDS011;29744;49.078;12.878;2022-09-17T00:35:22;1.45;;;1.05;;
44078;SDS011;29744;49.078;12.878;2022-09-17T00:40:23;1.77;;;1.00;;
44078;SDS011;29744;49.078;12.878;2022-09-17T00:45:24;1.48;;;0.98;;
44078;SDS011;29744;49.078;12.878;2022-09-17T00:50:27;1.00;;;0.80;;
44078;SDS011;29744;49.078;12.878;2022-09-17T00:55:32;1.73;;;0.90;;
44078;SDS011;29744;49.078;12.878;2022-09-17T01:00:41;1.10;;;0.85;;
44078;SDS011;29744;49.078;12.878;2022-09-17T01:05:46;1.35;;;0.93;;
44078;SDS011;29744;49.078;12.878;2022-09-17T01:21:50;1.20;;;0.90;;
44078;SDS011;29744;49.078;12.878;2022-09-17T01:32:29;1.83;;;0.90;;
44078;SDS011;29744;49.078;12.878;2022-09-17T01:47:57;1.27;;;0.88;;
44078;SDS011;29744;49.078;12.878;2022-09-17T01:53:11;1.30;;;0.80;;
44078;SDS011;29744;49.078;12.878;2022-09-17T01:58:25;1.40;;;0.93;;
44078;SDS011;29744;49.078;12.878;2022-09-17T02:03:38;1.55;;;0.88;;
44078;SDS011;29744;49.078;12.878;2022-09-17T02:08:48;1.88;;;0.82;;
44078;SDS011;29744;49.078;12.878;2022-09-17T02:13:53;1.00;;;0.75;;
44078;SDS011;29744;49.078;12.878;2022-09-17T02:19:01;1.20;;;0.70;;
44078;SDS011;29744;49.078;12.878;2022-09-17T02:24:15;1.00;;;0.80;;
44078;SDS011;29744;49.078;12.878;2022-09-17T02:29:43;1.02;;;0.60;;
44078;SDS011;29744;49.078;12.878;2022-09-17T02:34:43;1.40;;;0.70;;
44078;SDS011;29744;49.078;12.878;2022-09-17T02:39:43;0.98;;;0.70;;
44078;SDS011;29744;49.078;12.878;2022-09-17T02:55:19;0.95;;;0.73;;
44078;SDS011;29744;49.078;12.878;2022-09-17T03:00:30;1.83;;;0.82;;
44078;SDS011;29744;49.078;12.878;2022-09-17T03:05:31;1.20;;;0.90;;
44078;SDS011;29744;49.078;12.878;2022-09-17T03:10:33;1.50;;;0.80;;
44078;SDS011;29744;49.078;12.878;2022-09-17T03:15:33;1.05;;;0.70;;
44078;SDS011;29744;49.078;12.878;2022-09-17T03:20:33;1.17;;;0.70;;
44078;SDS011;29744;49.078;12.878;2022-09-17T03:25:34;1.08;;;0.70;;
44078;SDS011;29744;49.078;12.878;2022-09-17T03:30:34;1.40;;;0.70;;
44078;SDS011;29744;49.078;12.878;2022-09-17T03:35:34;1.20;;;0.70;;
44078;SDS011;29744;49.078;12.878;2022-09-17T03:40:34;0.75;;;0.65;;
44078;SDS011;29744;49.078;12.878;2022-09-17T03:45:35;0.80;;;0.60;;
44078;SDS011;29744;49.078;12.878;2022-09-17T03:50:35;1.17;;;0.60;;
44078;SDS011;29744;49.078;12.878;2022-09-17T03:55:39;0.77;;;0.63;;
44078;SDS011;29744;49.078;12.878;2022-09-17T04:00:40;0.93;;;0.75;;
44078;SDS011;29744;49.078;12.878;2022-09-17T04:05:40;0.93;;;0.73;;
44078;SDS011;29744;49.078;12.878;2022-09-17T04:10:42;1.27;;;0.80;;
44078;SDS011;29744;49.078;12.878;2022-09-17T04:15:43;1.00;;;0.68;;
44078;SDS011;29744;49.078;12.878;2022-09-17T04:20:45;0.70;;;0.60;;
44078;SDS011;29744;49.078;12.878;2022-09-17T04:25:45;1.15;;;0.70;;
44078;SDS011;29744;49.078;12.878;2022-09-17T04:30:46;1.00;;;0.60;;
44078;SDS011;29744;49.078;12.878;2022-09-17T04:35:47;1.08;;;0.70;;
44078;SDS011;29744;49.078;12.878;2022-09-17T04:40:47;1.42;;;0.73;;
44078;SDS011;29744;49.078;12.878;2022-09-17T04:45:48;0.60;;;0.60;;
44078;SDS011;29744;49.078;12.878;2022-09-17T04:50:49;0.70;;;0.60;;
44078;SDS011;29744;49.078;12.878;2022-09-17T04:55:49;0.80;;;0.57;;
44078;SDS011;29744;49.078;12.878;2022-09-17T05:00:50;0.90;;;0.70;;
44078;SDS011;29744;49.078;12.878;2022-09-17T05:05:51;1.10;;;0.60;;
44078;SDS011;29744;49.078;12.878;2022-09-17T05:10:51;1.35;;;0.77;;
44078;SDS011;29744;49.078;12.878;2022-09-17T05:15:53;1.17;;;0.70;;
44078;SDS011;29744;49.078;12.878;2022-09-17T05:20:55;0.80;;;0.73;;
44078;SDS011;29744;49.078;12.878;2022-09-17T05:25:59;1.15;;;0.80;;
44078;SDS011;29744;49.078;12.878;2022-09-17T05:31:00;0.77;;;0.60;;
44078;SDS011;29744;49.078;12.878;2022-09-17T05:36:01;1.15;;;0.70;;
44078;SDS011;29744;49.078;12.878;2022-09-17T05:41:04;0.90;;;0.70;;
44078;SDS011;29744;49.078;12.878;2022-09-17T05:46:05;0.93;;;0.65;;
44078;SDS011;29744;49.078;12.878;2022-09-17T05:51:05;0.75;;;0.57;;
44078;SDS011;29744;49.078;12.878;2022-09-17T05:56:06;1.17;;;0.70;;
44078;SDS011;29744;49.078;12.878;2022-09-17T06:01:07;1.58;;;0.75;;
44078;SDS011;29744;49.078;12.878;2022-09-17T06:06:07;1.10;;;0.70;;
44078;SDS011;29744;49.078;12.878;2022-09-17T06:11:07;1.13;;;0.60;;
44078;SDS011;29744;49.078;12.878;2022-09-17T06:16:08;1.20;;;0.60;;
44078;SDS011;29744;49.078;12.878;2022-09-17T06:21:11;1.50;;;0.75;;
44078;SDS011;29744;49.078;12.878;2022-09-17T06:26:11;1.17;;;0.77;;
44078;SDS011;29744;49.078;12.878;2022-09-17T06:31:12;1.50;;;0.70;;
44078;SDS011;29744;49.078;12.878;2022-09-17T06:36:13;1.27;;;0.73;;
44078;SDS011;29744;49.078;12.878;2022-09-17T06:41:13;0.95;;;0.57;;
44078;SDS011;29744;49.078;12.878;2022-09-17T06:46:15;1.80;;;0.70;;
44078;SDS011;29744;49.078;12.878;2022-09-17T06:51:16;1.08;;;0.70;;
44078;SDS011;29744;49.078;12.878;2022-09-17T06:56:16;1.10;;;0.70;;
44078;SDS011;29744;49.078;12.878;2022-09-17T07:01:16;1.38;;;0.77;;
44078;SDS011;29744;49.078;12.878;2022-09-17T07:06:17;1.20;;;0.63;;
44078;SDS011;29744;49.078;12.878;2022-09-17T07:11:17;1.15;;;0.65;;
44078;SDS011;29744;49.078;12.878;2022-09-17T07:16:17;1.20;;;0.65;;
44078;SDS011;29744;49.078;12.878;2022-09-17T07:21:18;1.30;;;0.70;;
44078;SDS011;29744;49.078;12.878;2022-09-17T07:26:18;1.10;;;0.80;;
44078;SDS011;29744;49.078;12.878;2022-09-17T07:31:19;1.00;;;0.70;;
44078;SDS011;29744;49.078;12.878;2022-09-17T07:36:19;1.23;;;0.77;;
44078;SDS011;29744;49.078;12.878;2022-09-17T07:41:19;0.50;;;0.50;;
44078;SDS011;29744;49.078;12.878;2022-09-17T07:46:20;1.83;;;0.80;;
44078;SDS011;29744;49.078;12.878;2022-09-17T07:51:24;2.03;;;1.00;;
44078;SDS011;29744;49.078;12.878;2022-09-17T08:01:27;1.40;;;0.60;;
44078;SDS011;29744;49.078;12.878;2022-09-17T08:06:27;1.63;;;0.70;;
44078;SDS011;29744;49.078;12.878;2022-09-17T08:11:28;1.55;;;0.75;;
44078;SDS011;29744;49.078;12.878;2022-09-17T08:16:30;1.80;;;0.70;;
44078;SDS011;29744;49.078;12.878;2022-09-17T08:21:30;1.52;;;0.80;;
44078;SDS011;29744;49.078;12.878;2022-09-17T08:26:31;1.42;;;0.70;;
44078;SDS011;29744;49.078;12.878;2022-09-17T08:31:31;1.25;;;0.75;;
44078;SDS011;29744;49.078;12.878;2022-09-17T08:36:32;1.15;;;0.70;;
44078;SDS011;29744;49.078;12.878;2022-09-17T08:41:38;2.03;;;0.98;;
44078;SDS011;29744;49.078;12.878;2022-09-17T08:47:00;1.80;;;0.70;;
44078;SDS011;29744;49.078;12.878;2022-09-17T08:52:21;1.40;;;0.70;;
44078;SDS011;29744;49.078;12.878;2022-09-17T09:02:37;1.45;;;0.70;;
44078;SDS011;29744;49.078;12.878;2022-09-17T09:07:50;1.90;;;0.70;;
44078;SDS011;29744;49.078;12.878;2022-09-17T09:12:54;1.27;;;0.60;;
44078;SDS011;29744;49.078;12.878;2022-09-17T09:18:01;3.90;;;0.90;;
44078;SDS011;29744;49.078;12.878;2022-09-17T09:23:18;1.38;;;0.70;;
44078;SDS011;29744;49.078;12.878;2022-09-17T09:33:30;2.65;;;0.70;;
44078;SDS011;29744;49.078;12.878;2022-09-17T09:38:36;4.65;;;1.20;;
44078;SDS011;29744;49.078;12.878;2022-09-17T09:43:47;3.55;;;1.00;;
44078;SDS011;29744;49.078;12.878;2022-09-17T09:59:28;3.15;;;1.00;;
44078;SDS011;29744;49.078;12.878;2022-09-17T10:04:29;3.42;;;0.90;;
44078;SDS011;29744;49.078;12.878;2022-09-17T10:09:32;5.63;;;1.23;;
44078;SDS011;29744;49.078;12.878;2022-09-17T10:14:35;3.22;;;0.95;;
44078;SDS011;29744;49.078;12.878;2022-09-17T10:19:36;4.53;;;1.00;;
44078;SDS011;29744;49.078;12.878;2022-09-17T10:24:37;3.15;;;0.82;;
44078;SDS011;29744;49.078;12.878;2022-09-17T10:29:41;2.45;;;0.80;;
44078;SDS011;29744;49.078;12.878;2022-09-17T10:34:59;1.73;;;0.70;;
44078;SDS011;29744;49.078;12.878;2022-09-17T10:45:28;2.13;;;0.73;;
44078;SDS011;29744;49.078;12.878;2022-09-17T10:50:30;2.20;;;0.80;;
44078;SDS011;29744;49.078;12.878;2022-09-17T10:55:37;1.75;;;0.85;;
44078;SDS011;29744;49.078;12.878;2022-09-17T11:06:00;2.88;;;0.93;;
44078;SDS011;29744;49.078;12.878;2022-09-17T11:27:48;6.07;;;1.17;;
44078;SDS011;29744;49.078;12.878;2022-09-17T11:33:06;2.70;;;0.82;;
44078;SDS011;29744;49.078;12.878;2022-09-17T11:38:25;2.75;;;0.80;;
44078;SDS011;29744;49.078;12.878;2022-09-17T11:48:34;3.23;;;1.00;;
44078;SDS011;29744;49.078;12.878;2022-09-17T11:53:38;3.35;;;0.85;;
44078;SDS011;29744;49.078;12.878;2022-09-17T11:58:52;2.85;;;1.08;;
44078;SDS011;29744;49.078;12.878;2022-09-17T12:04:18;6.88;;;1.15;;
44078;SDS011;29744;49.078;12.878;2022-09-17T12:09:30;2.67;;;0.82;;
44078;SDS011;29744;49.078;12.878;2022-09-17T12:14:38;3.15;;;1.23;;
44078;SDS011;29744;49.078;12.878;2022-09-17T12:19:47;2.33;;;1.10;;
44078;SDS011;29744;49.078;12.878;2022-09-17T12:24:52;2.53;;;1.03;;
44078;SDS011;29744;49.078;12.878;2022-09-17T12:40:45;4.68;;;1.27;;
44078;SDS011;29744;49.078;12.878;2022-09-17T13:02:02;5.38;;;1.50;;
44078;SDS011;29744;49.078;12.878;2022-09-17T13:07:38;2.67;;;1.10;;
44078;SDS011;29744;49.078;12.878;2022-09-17T13:13:17;2.80;;;1.05;;
44078;SDS011;29744;49.078;12.878;2022-09-17T13:18:51;2.60;;;1.00;;
44078;SDS011;29744;49.078;12.878;2022-09-17T13:24:16;3.22;;;1.20;;
44078;SDS011;29744;49.078;12.878;2022-09-17T13:34:56;2.08;;;0.93;;
44078;SDS011;29744;49.078;12.878;2022-09-17T13:39:56;4.13;;;1.17;;
44078;SDS011;29744;49.078;12.878;2022-09-17T13:45:05;3.45;;;1.30;;
44078;SDS011;29744;49.078;12.878;2022-09-17T13:50:23;3.50;;;1.20;;
44078;SDS011;29744;49.078;12.878;2022-09-17T13:55:33;3.33;;;1.00;;
44078;SDS011;29744;49.078;12.878;2022-09-17T14:06:44;3.35;;;1.20;;
44078;SDS011;29744;49.078;12.878;2022-09-17T14:21:26;2.55;;;1.13;;
44078;SDS011;29744;49.078;12.878;2022-09-17T14:31:56;2.85;;;1.10;;
44078;SDS011;29744;49.078;12.878;2022-09-17T14:36:57;3.10;;;0.95;;
44078;SDS011;29744;49.078;12.878;2022-09-17T14:41:58;3.63;;;1.33;;
44078;SDS011;29744;49.078;12.878;2022-09-17T14:47:01;3.53;;;1.35;;
44078;SDS011;29744;49.078;12.878;2022-09-17T14:52:26;2.28;;;1.10;;
44078;SDS011;29744;49.078;12.878;2022-09-17T14:57:29;3.33;;;1.00;;
44078;SDS011;29744;49.078;12.878;2022-09-17T15:02:42;2.38;;;1.00;;
44078;SDS011;29744;49.078;12.878;2022-09-17T15:07:44;2.80;;;0.98;;
44078;SDS011;29744;49.078;12.878;2022-09-17T15:12:44;3.70;;;1.35;;
44078;SDS011;29744;49.078;12.878;2022-09-17T15:17:46;2.10;;;0.90;;
44078;SDS011;29744;49.078;12.878;2022-09-17T15:22:55;2.83;;;1.05;;
44078;SDS011;29744;49.078;12.878;2022-09-17T15:28:12;3.50;;;1.02;;
44078;SDS011;29744;49.078;12.878;2022-09-17T15:33:28;2.38;;;1.00;;
44078;SDS011;29744;49.078;12.878;2022-09-17T15:38:31;2.90;;;1.25;;
44078;SDS011;29744;49.078;12.878;2022-09-17T15:43:32;2.72;;;1.00;;
44078;SDS011;29744;49.078;12.878;2022-09-17T15:48:34;2.33;;;0.90;;
44078;SDS011;29744;49.078;12.878;2022-09-17T15:53:37;3.15;;;1.10;;
44078;SDS011;29744;49.078;12.878;2022-09-17T16:08:40;3.38;;;1.10;;
44078;SDS011;29744;49.078;12.878;2022-09-17T16:13:41;2.92;;;1.10;;
44078;SDS011;29744;49.078;12.878;2022-09-17T16:18:42;2.67;;;1.10;;
44078;SDS011;29744;49.078;12.878;2022-09-17T16:23:43;2.65;;;1.05;;
44078;SDS011;29744;49.078;12.878;2022-09-17T16:28:44;2.95;;;1.05;;
44078;SDS011;29744;49.078;12.878;2022-09-17T16:33:45;2.22;;;1.10;;
44078;SDS011;29744;49.078;12.878;2022-09-17T16:38:46;2.00;;;0.90;;
44078;SDS011;29744;49.078;12.878;2022-09-17T16:43:46;2.63;;;1.00;;
44078;SDS011;29744;49.078;12.878;2022-09-17T16:48:49;2.90;;;1.20;;
44078;SDS011;29744;49.078;12.878;2022-09-17T16:53:50;2.83;;;1.20;;
44078;SDS011;29744;49.078;12.878;2022-09-17T16:58:54;4.60;;;0.90;;
44078;SDS011;29744;49.078;12.878;2022-09-17T17:03:55;2.78;;;1.00;;
44078;SDS011;29744;49.078;12.878;2022-09-17T17:08:58;2.35;;;0.90;;
44078;SDS011;29744;49.078;12.878;2022-09-17T17:14:01;3.45;;;1.00;;
44078;SDS011;29744;49.078;12.878;2022-09-17T17:19:04;3.47;;;1.20;;
44078;SDS011;29744;49.078;12.878;2022-09-17T17:24:05;2.92;;;1.05;;
44078;SDS011;29744;49.078;12.878;2022-09-17T17:29:06;2.80;;;1.10;;
44078;SDS011;29744;49.078;12.878;2022-09-17T17:34:07;4.60;;;1.20;;
44078;SDS011;29744;49.078;12.878;2022-09-17T17:39:07;1.75;;;0.95;;
44078;SDS011;29744;49.078;12.878;2022-09-17T17:44:08;2.03;;;0.95;;
44078;SDS011;29744;49.078;12.878;2022-09-17T17:49:12;3.33;;;1.15;;
44078;SDS011;29744;49.078;12.878;2022-09-17T17:54:12;2.90;;;0.93;;
44078;SDS011;29744;49.078;12.878;2022-09-17T17:59:12;3.00;;;1.42;;
44078;SDS011;29744;49.078;12.878;2022-09-17T18:04:13;2.33;;;0.88;;
44078;SDS011;29744;49.078;12.878;2022-09-17T18:09:13;3.00;;;1.20;;
44078;SDS011;29744;49.078;12.878;2022-09-17T18:14:14;3.25;;;1.48;;
44078;SDS011;29744;49.078;12.878;2022-09-17T18:19:14;2.30;;;1.00;;
44078;SDS011;29744;49.078;12.878;2022-09-17T18:24:14;2.15;;;1.00;;
44078;SDS011;29744;49.078;12.878;2022-09-17T18:29:14;2.45;;;1.20;;
44078;SDS011;29744;49.078;12.878;2022-09-17T18:34:15;3.30;;;1.38;;
44078;SDS011;29744;49.078;12.878;2022-09-17T18:39:16;2.72;;;1.42;;
44078;SDS011;29744;49.078;12.878;2022-09-17T18:44:16;1.83;;;1.00;;
44078;SDS011;29744;49.078;12.878;2022-09-17T18:49:19;2.45;;;1.10;;
44078;SDS011;29744;49.078;12.878;2022-09-17T18:54:19;3.22;;;1.17;;
44078;SDS011;29744;49.078;12.878;2022-09-17T18:59:20;2.23;;;1.00;;
44078;SDS011;29744;49.078;12.878;2022-09-17T19:04:20;2.88;;;1.00;;
44078;SDS011;29744;49.078;12.878;2022-09-17T19:09:21;2.58;;;1.05;;
44078;SDS011;29744;49.078;12.878;2022-09-17T19:14:21;1.83;;;1.10;;
44078;SDS011;29744;49.078;12.878;2022-09-17T19:19:22;2.75;;;1.20;;
44078;SDS011;29744;49.078;12.878;2022-09-17T19:24:22;2.40;;;1.10;;
44078;SDS011;29744;49.078;12.878;2022-09-17T19:29:22;2.08;;;1.10;;
44078;SDS011;29744;49.078;12.878;2022-09-17T19:34:22;2.47;;;1.15;;
44078;SDS011;29744;49.078;12.878;2022-09-17T19:39:23;2.38;;;1.00;;
44078;SDS011;29744;49.078;12.878;2022-09-17T19:44:23;1.98;;;0.95;;
44078;SDS011;29744;49.078;12.878;2022-09-17T19:49:23;1.83;;;0.90;;
44078;SDS011;29744;49.078;12.878;2022-09-17T19:54:24;1.92;;;1.05;;
44078;SDS011;29744;49.078;12.878;2022-09-17T19:59:24;3.25;;;1.13;;
44078;SDS011;29744;49.078;12.878;2022-09-17T20:04:24;1.83;;;1.00;;
44078;SDS011;29744;49.078;12.878;2022-09-17T20:09:24;2.42;;;1.15;;
44078;SDS011;29744;49.078;12.878;2022-09-17T20:14:25;1.77;;;0.85;;
44078;SDS011;29744;49.078;12.878;2022-09-17T20:19:26;2.05;;;0.90;;
44078;SDS011;29744;49.078;12.878;2022-09-17T20:24:26;1.75;;;1.00;;
44078;SDS011;29744;49.078;12.878;2022-09-17T20:29:27;2.17;;;1.13;;
44078;SDS011;29744;49.078;12.878;2022-09-17T20:34:27;1.98;;;0.95;;
44078;SDS011;29744;49.078;12.878;2022-09-17T20:39:27;2.38;;;1.00;;
44078;SDS011;29744;49.078;12.878;2022-09-17T20:44:28;2.95;;;1.00;;
44078;SDS011;29744;49.078;12.878;2022-09-17T20:49:29;1.70;;;0.88;;
44078;SDS011;29744;49.078;12.878;2022-09-17T20:54:29;1.98;;;1.00;;
44078;SDS011;29744;49.078;12.878;2022-09-17T20:59:30;2.15;;;0.70;;
44078;SDS011;29744;49.078;12.878;2022-09-17T21:04:49;2.53;;;1.15;;
44078;SDS011;29744;49.078;12.878;2022-09-17T21:09:49;2.22;;;1.00;;
44078;SDS011;29744;49.078;12.878;2022-09-17T21:14:50;1.85;;;1.08;;
44078;SDS011;29744;49.078;12.878;2022-09-17T21:19:50;1.80;;;1.08;;
44078;SDS011;29744;49.078;12.878;2022-09-17T21:24:51;1.27;;;0.80;;
44078;SDS011;29744;49.078;12.878;2022-09-17T21:29:51;1.20;;;0.80;;
44078;SDS011;29744;49.078;12.878;2022-09-17T21:34:51;1.95;;;0.90;;
44078;SDS011;29744;49.078;12.878;2022-09-17T21:39:52;2.65;;;1.00;;
44078;SDS011;29744;49.078;12.878;2022-09-17T21:44:52;1.63;;;0.80;;
44078;SDS011;29744;49.078;12.878;2022-09-17T21:49:53;1.48;;;0.80;;
44078;SDS011;29744;49.078;12.878;2022-09-17T21:54:53;2.00;;;0.95;;
44078;SDS011;29744;49.078;12.878;2022-09-17T21:59:53;1.67;;;0.88;;
44078;SDS011;29744;49.078;12.878;2022-09-17T22:04:54;1.58;;;0.80;;
44078;SDS011;29744;49.078;12.878;2022-09-17T22:09:54;1.80;;;0.90;;
44078;SDS011;29744;49.078;12.878;2022-09-17T22:14:54;2.90;;;1.08;;
44078;SDS011;29744;49.078;12.878;2022-09-17T22:19:54;1.67;;;0.80;;
44078;SDS011;29744;49.078;12.878;2022-09-17T22:24:55;1.83;;;0.90;;
44078;SDS011;29744;49.078;12.878;2022-09-17T22:29:55;1.65;;;0.90;;
44078;SDS011;29744;49.078;12.878;2022-09-17T22:34:55;1.92;;;0.82;;
44078;SDS011;29744;49.078;12.878;2022-09-17T22:39:55;2.42;;;1.00;;
44078;SDS011;29744;49.078;12.878;2022-09-17T22:44:56;2.33;;;0.80;;
44078;SDS011;29744;49.078;12.878;2022-09-17T22:49:56;1.08;;;0.70;;
44078;SDS011;29744;49.078;12.878;2022-09-17T22:54:56;1.35;;;0.68;;
44078;SDS011;29744;49.078;12.878;2022-09-17T22:59:56;1.55;;;0.90;;
44078;SDS011;29744;49.078;12.878;2022-09-17T23:04:57;1.25;;;0.80;;
44078;SDS011;29744;49.078;12.878;2022-09-17T23:09:57;1.20;;;0.70;;
44078;SDS011;29744;49.078;12.878;2022-09-17T23:14:57;1.33;;;0.73;;
44078;SDS011;29744;49.078;12.878;2022-09-17T23:19:58;0.77;;;0.50;;
44078;SDS011;29744;49.078;12.878;2022-09-17T23:24:58;1.52;;;0.80;;
44078;SDS011;29744;49.078;12.878;2022-09-17T23:29:59;1.27;;;0.80;;
44078;SDS011;29744;49.078;12.878;2022-09-17T23:34:59;1.02;;;0.60;;
44078;SDS011;29744;49.078;12.878;2022-09-17T23:39:59;1.63;;;0.80;;
44078;SDS011;29744;49.078;12.878;2022-09-17T23:45:00;1.05;;;0.70;;
44078;SDS011;29744;49.078;12.878;2022-09-17T23:50:01;1.55;;;0.85;;
44078;SDS011;29744;49.078;12.878;2022-09-17T23:55:01;0.60;;;0.60;;
